Padua, Illinois
Current Conditions -  °F | °C
As of 12:56 AM on Monday 24 Nov 2014 (Local Time) from KBMI Reporting Station
Light Rain Light Rain  
Wind Chill: 45°   Ceiling: 100
Heat Index: 49°   Visibility: 0.25mi
Dew Point: 49°   Wind: 10mph
Humidity: 100%   Direction: 220°SW
Pressure: 29.16"   Gusts: NA
Location:  40.4429°N, 88.7467°W
Report Text: KBMI 240656Z AUTO 22009KT 1/4SM R29/2400V3500FT -RA FG OVC001 09/09 A2916 RMK AO2 T00940094 RAB0558E0559B15 P0001 SLP875
Loading
Personal Weather Stations






























Interactive Weather Map New forecast layout! Learn more

10-Day Weather Forecast

Advertisements
Track Severe Weather on mobile